Latest Coastal Weather Observations for South Johnstone

IDQ60701

Issued at 5:12 pm EST Saturday 30 April 2016 (issued every 10 minutes, with the page automatically refreshed every 10 minutes)

About coastal observations | Map of coastal stations | Coastal observations for QLD | Marine services | Other Formats
Station Details ID: 032037 Name: SOUTH JOHNSTONE EXP STN Lat: -17.61 Lon: 146.00 Height: 18.3 m
Data from the previous 72 hours. | See also: Recent months at South Johnstone
Date/Time
EST
Temp

°C
Wind Pressure Rain
since 9am
mm
Weather Cloud Vis
km
Sea
Height
m
Swell
Dir
 
Speed
knots
Gust
knots
hPa Trend Height
m
Period
s
Dir
30/05:00pm 26.7 SSE 6 11 1014.4 - 1.4 - - - - - - -
30/04:30pm 26.9 S 6 10 1014.3 - 1.4 - - - - - - -
30/04:00pm 27.2 SSE 7 11 1014.1 - 1.4 - - - - - - -
30/03:30pm 27.5 SE 8 11 1014.0 - 1.4 - - - - - - -
30/03:00pm 27.8 SSE 8 14 1013.9 - 1.4 - - - - - - -
30/02:30pm 28.3 SE 9 13 1014.0 - 1.4 - - - - - - -
30/02:00pm 28.4 SE 9 14 1014.4 - 1.4 - - - - - - -
30/01:30pm 28.6 SE 8 14 1014.6 - 1.4 - - - - - - -
30/01:00pm 28.0 SE 9 15 1015.0 - 1.4 - - - - - - -
30/12:30pm 26.8 SE 10 15 1015.6 - 1.4 - - - - - - -
30/12:00pm 28.4 SSE 8 13 1015.8 - 1.2 - - - - - - -
30/11:30am 27.5 SSE 8 14 1016.4 - 1.2 - - - - - - -
30/11:00am 27.4 SSE 8 13 1016.7 - 1.2 - - - - - - -
30/10:30am 27.7 SE 8 13 1017.1 - 1.2 - - - - - - -
30/10:00am 27.2 SE 11 16 1017.3 - 1.2 - - - - - - -
30/09:30am 26.0 S 6 9 1017.2 - 0.0 - - - - - - -
30/09:00am 26.0 S 8 13 1017.0 - 39.0 - - - - - - -
30/08:30am 25.2 S 6 11 1017.0 - 39.0 - - - - - - -
30/08:00am 25.1 SSE 5 8 1017.0 - 39.0 - - - - - - -
30/07:30am 24.9 S 6 8 1016.7 - 39.0 - - - - - - -
30/07:00am 24.3 S 4 8 1016.5 - 39.0 - - - - - - -
30/06:30am 24.3 S 3 7 1016.2 - 38.8 - - - - - - -
30/06:00am 24.2 S 1 4 1015.7 - 38.2 - - - - - - -
30/05:30am 24.4 S 2 6 1015.5 - 38.2 - - - - - - -
30/05:00am 24.6 S 5 7 1015.3 - 37.4 - - - - - - -
30/04:30am 24.7 S 7 12 1015.3 - 37.4 - - - - - - -
30/04:00am 24.4 S 6 9 1015.2 - 37.4 - - - - - - -
30/03:30am 25.2 S 6 11 1015.0 - 36.6 - - - - - - -
30/03:00am 25.1 S 5 8 1015.1 - 36.6 - - - - - - -
30/02:30am 25.1 S 6 11 1015.5 - 36.6 - - - - - - -
30/02:00am 24.9 S 5 8 1015.7 - 36.6 - - - - - - -
30/01:30am 24.8 S 5 7 1015.8 - 36.6 - - - - - - -
30/01:00am 25.0 S 6 9 1016.1 - 36.6 - - - - - - -
30/12:30am 24.6 SSE 4 6 1016.4 - 36.6 - - - - - - -
30/12:00am 24.5 SE 4 6 1016.5 - 36.6 - - - - - - -
 
Date/Time
EST
Temp

°C
Wind Pressure Rain
since 9am
mm
Weather Cloud Vis
km
Sea
Height
m
Swell
Dir
 
Speed
knots
Gust
knots
hPa Trend Height
m
Period
s
Dir
29/11:30pm 24.6 SSE 4 6 1016.8 - 36.6 - - - - - - -
29/11:00pm 24.7 SE 5 7 1017.0 - 36.6 - - - - - - -
29/10:30pm 24.7 E 2 6 1017.0 - 36.6 - - - - - - -
29/10:00pm 24.3 CALM 0 1 1017.1 - 36.6 - - - - - - -
29/09:30pm 23.9 NE 4 6 1017.2 - 36.0 - - - - - - -
29/09:00pm 24.0 CALM 0 0 1016.9 - 35.0 - - - - - - -
29/08:30pm 23.9 WNW 1 3 1016.8 - 35.0 - - - - - - -
29/08:00pm 23.9 NW 1 4 1016.4 - 35.0 - - - - - - -
29/07:30pm 23.9 WSW 2 4 1016.1 - 35.0 - - - - - - -
29/07:00pm 23.9 CALM 0 0 1015.7 - 35.0 - - - - - - -
29/06:30pm 24.2 SE 6 13 1015.3 - 35.0 - - - - - - -
29/06:00pm 24.2 ENE 1 3 1015.0 - 35.0 - - - - - - -
29/05:30pm 24.5 SSW 3 6 1014.7 - 33.6 - - - - - - -
29/05:00pm 24.7 SSW 4 8 1014.5 - 33.4 - - - - - - -
29/04:30pm 24.5 S 7 11 1014.3 - 33.4 - - - - - - -
29/04:00pm 23.9 SE 7 9 1014.3 - 33.2 - - - - - - -
29/03:30pm 23.9 SSE 4 7 1014.2 - 29.8 - - - - - - -
29/03:00pm 24.5 N 1 5 1013.9 - 22.4 - - - - - - -
29/02:30pm 25.0 CALM 0 0 1013.9 - 22.4 - - - - - - -
29/02:00pm 24.9 CALM 0 0 1014.3 - 22.4 - - - - - - -
29/01:30pm 24.4 N 1 4 1014.4 - 21.6 - - - - - - -
29/01:00pm 24.3 ENE 6 9 1015.3 - 13.4 - - - - - - -
29/12:30pm 26.9 SSE 8 13 1015.2 - 1.6 - - - - - - -
29/12:00pm 26.7 SE 7 11 1015.5 - 1.6 - - - - - - -
29/11:30am 26.0 ESE 5 10 1016.0 - 1.4 - - - - - - -
29/11:00am 24.5 E 7 11 1016.4 - 1.2 - - - - - - -
29/10:30am 26.1 SSE 8 11 1016.6 - 0.2 - - - - - - -
29/10:00am 26.6 SSE 5 9 1016.8 - 0.2 - - - - - - -
29/09:30am 26.3 S 6 11 1016.8 - 0.2 - - - - - - -
29/09:00am 27.1 SSE 7 10 1016.6 - 7.4 - - - - - - -
29/08:30am 25.9 S 4 8 1016.6 - 7.4 - - - - - - -
29/08:00am 26.4 SSE 4 9 1016.4 - 7.4 - - - - - - -
29/07:30am 25.0 S 3 6 1016.2 - 7.4 - - - - - - -
29/07:00am 24.4 S 2 8 1015.8 - 7.4 - - - - - - -
29/06:30am 24.3 SSW 2 8 1015.5 - 7.4 - - - - - - -
29/06:00am 24.0 W 1 5 1014.9 - 7.4 - - - - - - -
29/05:30am 24.3 S 5 8 1014.8 - 7.4 - - - - - - -
29/05:00am 24.4 SW 4 6 1014.7 - 6.6 - - - - - - -
29/04:30am 24.4 SSE 3 6 1014.7 - 6.6 - - - - - - -
29/04:00am 24.9 S 5 8 1014.7 - 6.4 - - - - - - -
29/03:30am 24.6 S 5 8 1014.5 - 6.4 - - - - - - -
29/03:00am 23.4 CALM 0 1 1014.8 - 6.4 - - - - - - -
29/02:30am 23.4 S 1 5 1015.1 - 6.4 - - - - - - -
29/02:00am 23.6 SSE 1 5 1015.1 - 6.4 - - - - - - -
29/01:30am 23.6 SSE 4 6 1015.4 - 6.4 - - - - - - -
29/01:00am 23.7 CALM 0 0 1015.7 - 6.0 - - - - - - -
29/12:30am 23.7 CALM 0 3 1016.1 - 5.2 - - - - - - -
29/12:00am 24.3 CALM 0 3 1016.2 - 4.0 - - - - - - -
 
Date/Time
EST
Temp

°C
Wind Pressure Rain
since 9am
mm
Weather Cloud Vis
km
Sea
Height
m
Swell
Dir
 
Speed
knots
Gust
knots
hPa Trend Height
m
Period
s
Dir
28/11:30pm 24.6 S 2 5 1016.5 - 3.0 - - - - - - -
28/11:00pm 24.8 SSW 5 8 1016.6 - 3.0 - - - - - - -
28/10:30pm 24.3 SSW 5 8 1016.7 - 3.0 - - - - - - -
28/10:00pm 24.2 SW 5 9 1016.6 - 0.0 - - - - - - -
28/09:30pm 24.9 SSW 6 9 1016.5 - 0.0 - - - - - - -
28/09:00pm 25.2 SSW 8 11 1016.3 - 0.0 - - - - - - -
28/08:30pm 25.3 SSW 6 9 1016.3 - 0.0 - - - - - - -
28/08:00pm 25.4 SSW 6 9 1016.1 - 0.0 - - - - - - -
28/07:30pm 25.4 SSW 7 10 1015.6 - 0.0 - - - - - - -
28/07:00pm 25.4 S 4 9 1015.4 - 0.0 - - - - - - -
28/06:30pm 25.4 S 4 6 1015.2 - 0.0 - - - - - - -
28/06:00pm 25.6 SSE 6 9 1014.8 - 0.0 - - - - - - -
28/05:30pm 25.9 S 5 8 1014.8 - 0.0 - - - - - - -
28/05:00pm 26.7 S 7 11 1014.5 - 0.0 - - - - - - -
28/04:30pm 26.9 SSE 8 12 1014.2 - 0.0 - - - - - - -
28/04:00pm 27.4 SSE 9 14 1014.1 - 0.0 - - - - - - -
28/03:30pm 27.4 SSE 8 13 1013.9 - 0.0 - - - - - - -
28/03:00pm 27.9 SE 9 15 1013.8 - 0.0 - - - - - - -
28/02:30pm 27.8 SSE 10 14 1013.8 - 0.0 - - - - - - -
28/02:00pm 28.6 ESE 9 13 1013.8 - 0.0 - - - - - - -
28/01:30pm 27.8 ESE 9 14 1014.0 - 0.0 - - - - - - -
28/01:00pm 28.2 ESE 9 15 1014.1 - 0.0 - - - - - - -
28/12:30pm 28.1 SE 8 12 1014.5 - 0.0 - - - - - - -
28/12:00pm 26.9 SE 8 13 1015.0 - 0.0 - - - - - - -
28/11:30am 27.3 SE 7 12 1015.4 - 0.0 - - - - - - -
28/11:00am 27.0 SSE 8 12 1015.9 - 0.0 - - - - - - -
28/10:30am 26.7 SE 10 16 1016.2 - 0.0 - - - - - - -
28/10:00am 27.1 SE 9 15 1016.2 - 0.0 - - - - - - -
28/09:30am 26.9 SE 11 17 1015.9 - 0.0 - - - - - - -
28/09:00am 26.1 SSE 6 9 1015.6 - 16.0 - - - - - - -
28/08:30am 24.8 SSE 6 10 1015.6 - 16.0 - - - - - - -
28/08:00am 25.5 S 7 12 1015.1 - 16.0 - - - - - - -
28/07:30am 23.9 SSW 2 7 1014.8 - 16.0 - - - - - - -
28/07:00am 22.6 SW 3 6 1014.5 - 16.0 - - - - - - -
28/06:30am 22.8 SSW 4 12 1014.3 - 14.8 - - - - - - -
28/06:00am 22.5 CALM 0 0 1013.8 - 13.2 - - - - - - -
28/05:30am 23.2 SSW 2 6 1013.6 - 13.2 - - - - - - -
28/05:00am 22.9 S 1 4 1013.6 - 13.2 - - - - - - -
28/04:30am 22.9 S 3 5 1013.4 - 12.2 - - - - - - -
28/04:00am 23.1 SSE 7 9 1013.6 - 11.6 - - - - - - -
28/03:30am 23.1 CALM 0 3 1013.5 - 9.8 - - - - - - -
28/03:00am 23.0 NNE 3 6 1013.6 - 9.8 - - - - - - -
28/02:30am 23.1 CALM 0 3 1013.8 - 7.2 - - - - - - -
28/02:00am 23.4 SE 5 9 1014.3 - 7.2 - - - - - - -
28/01:30am 24.0 SSW 4 6 1014.4 - 5.4 - - - - - - -
28/01:00am 23.0 S 1 6 1014.6 - 5.4 - - - - - - -
28/12:30am 23.2 SSE 6 9 1015.0 - 5.4 - - - - - - -
28/12:00am 23.8 SSW 4 5 1014.9 - 4.6 - - - - - - -
 
Date/Time
EST
Temp

°C
Wind Pressure Rain
since 9am
mm
Weather Cloud Vis
km
Sea
Height
m
Swell
Dir
 
Speed
knots
Gust
knots
hPa Trend Height
m
Period
s
Dir
27/11:30pm 23.3 S 5 8 1015.2 - 4.6 - - - - - - -
27/11:00pm 23.3 S 4 7 1015.4 - 4.6 - - - - - - -
27/10:30pm 23.6 ESE 5 8 1015.4 - 3.8 - - - - - - -
27/10:00pm 23.8 SSW 7 11 1015.4 - 3.6 - - - - - - -
27/09:30pm 23.5 S 5 9 1015.6 - 3.6 - - - - - - -
27/09:00pm 23.5 S 5 9 1015.5 - 3.6 - - - - - - -
27/08:30pm 23.9 S 5 10 1015.6 - 3.4 - - - - - - -
27/08:00pm 24.3 S 8 14 1015.3 - 3.4 - - - - - - -
27/07:30pm 24.3 S 8 13 1015.0 - 3.4 - - - - - - -
27/07:00pm 24.1 S 6 9 1014.7 - 3.4 - - - - - - -
27/06:30pm 23.5 S 5 8 1014.3 - 3.4 - - - - - - -
27/06:00pm 24.4 SSW 7 11 1013.9 - 3.2 - - - - - - -
27/05:30pm 24.3 S 6 9 1013.7 - 3.2 - - - - - - -

Other Formats:

Comma delimited format used in spreadsheet applications
http://www.bom.gov.au/fwo/IDQ60701/IDQ60701.95292.axf

JavaScript Object Notation format (JSON) in row-major order
http://www.bom.gov.au/fwo/IDQ60701/IDQ60701.95292.json